sensor_id;sensor_type;location;lat;lon;timestamp;P1;durP1;ratioP1;P2;durP2;ratioP2
8871;SDS011;4472;52.092;9.820;2023-06-24T00:00:01;10.03;;;7.27;;
8871;SDS011;4472;52.092;9.820;2023-06-24T00:02:52;18.33;;;7.77;;
8871;SDS011;4472;52.092;9.820;2023-06-24T00:05:39;16.83;;;7.73;;
8871;SDS011;4472;52.092;9.820;2023-06-24T00:08:28;12.20;;;7.30;;
8871;SDS011;4472;52.092;9.820;2023-06-24T00:11:19;18.70;;;7.90;;
8871;SDS011;4472;52.092;9.820;2023-06-24T00:14:06;19.20;;;7.53;;
8871;SDS011;4472;52.092;9.820;2023-06-24T00:16:55;14.00;;;7.67;;
8871;SDS011;4472;52.092;9.820;2023-06-24T00:19:42;15.00;;;7.23;;
8871;SDS011;4472;52.092;9.820;2023-06-24T00:22:30;11.17;;;7.20;;
8871;SDS011;4472;52.092;9.820;2023-06-24T00:25:17;15.47;;;7.63;;
8871;SDS011;4472;52.092;9.820;2023-06-24T00:28:04;16.57;;;7.80;;
8871;SDS011;4472;52.092;9.820;2023-06-24T00:30:52;13.63;;;7.80;;
8871;SDS011;4472;52.092;9.820;2023-06-24T00:33:40;17.17;;;7.83;;
8871;SDS011;4472;52.092;9.820;2023-06-24T00:36:27;16.73;;;8.03;;
8871;SDS011;4472;52.092;9.820;2023-06-24T00:39:17;14.57;;;8.07;;
8871;SDS011;4472;52.092;9.820;2023-06-24T00:42:04;17.03;;;8.23;;
8871;SDS011;4472;52.092;9.820;2023-06-24T00:44:52;14.97;;;7.93;;
8871;SDS011;4472;52.092;9.820;2023-06-24T00:47:39;13.23;;;7.63;;
8871;SDS011;4472;52.092;9.820;2023-06-24T00:50:28;13.43;;;7.47;;
8871;SDS011;4472;52.092;9.820;2023-06-24T00:53:16;20.40;;;8.10;;
8871;SDS011;4472;52.092;9.820;2023-06-24T00:56:03;25.23;;;8.23;;
8871;SDS011;4472;52.092;9.820;2023-06-24T00:58:51;23.90;;;8.23;;
8871;SDS011;4472;52.092;9.820;2023-06-24T01:01:39;13.00;;;7.37;;
8871;SDS011;4472;52.092;9.820;2023-06-24T01:04:26;18.20;;;7.27;;
8871;SDS011;4472;52.092;9.820;2023-06-24T01:07:15;19.93;;;7.40;;
8871;SDS011;4472;52.092;9.820;2023-06-24T01:10:04;27.83;;;8.30;;
8871;SDS011;4472;52.092;9.820;2023-06-24T01:12:52;22.33;;;7.87;;
8871;SDS011;4472;52.092;9.820;2023-06-24T01:15:39;21.83;;;7.20;;
8871;SDS011;4472;52.092;9.820;2023-06-24T01:18:29;15.40;;;6.87;;
8871;SDS011;4472;52.092;9.820;2023-06-24T01:21:21;20.57;;;7.43;;
8871;SDS011;4472;52.092;9.820;2023-06-24T01:24:26;13.90;;;7.70;;
8871;SDS011;4472;52.092;9.820;2023-06-24T01:27:32;25.03;;;8.07;;
8871;SDS011;4472;52.092;9.820;2023-06-24T01:30:50;19.23;;;8.13;;
8871;SDS011;4472;52.092;9.820;2023-06-24T01:33:54;17.83;;;7.27;;
8871;SDS011;4472;52.092;9.820;2023-06-24T01:36:47;17.13;;;7.47;;
8871;SDS011;4472;52.092;9.820;2023-06-24T01:39:42;23.00;;;7.30;;
8871;SDS011;4472;52.092;9.820;2023-06-24T01:42:34;17.60;;;7.63;;
8871;SDS011;4472;52.092;9.820;2023-06-24T01:45:25;22.93;;;8.73;;
8871;SDS011;4472;52.092;9.820;2023-06-24T01:48:15;18.77;;;7.50;;
8871;SDS011;4472;52.092;9.820;2023-06-24T01:51:06;24.80;;;8.50;;
8871;SDS011;4472;52.092;9.820;2023-06-24T01:54:06;18.77;;;8.03;;
8871;SDS011;4472;52.092;9.820;2023-06-24T01:56:59;20.87;;;8.20;;
8871;SDS011;4472;52.092;9.820;2023-06-24T01:59:48;21.60;;;7.53;;
8871;SDS011;4472;52.092;9.820;2023-06-24T02:02:37;22.00;;;7.73;;
8871;SDS011;4472;52.092;9.820;2023-06-24T02:05:25;23.53;;;7.83;;
8871;SDS011;4472;52.092;9.820;2023-06-24T02:08:15;23.07;;;8.30;;
8871;SDS011;4472;52.092;9.820;2023-06-24T02:11:04;22.70;;;7.73;;
8871;SDS011;4472;52.092;9.820;2023-06-24T02:13:53;19.00;;;7.97;;
8871;SDS011;4472;52.092;9.820;2023-06-24T02:16:41;22.23;;;8.27;;
8871;SDS011;4472;52.092;9.820;2023-06-24T02:19:29;16.53;;;8.23;;
8871;SDS011;4472;52.092;9.820;2023-06-24T02:22:17;20.57;;;8.47;;
8871;SDS011;4472;52.092;9.820;2023-06-24T02:25:07;21.67;;;8.23;;
8871;SDS011;4472;52.092;9.820;2023-06-24T02:27:54;16.03;;;7.40;;
8871;SDS011;4472;52.092;9.820;2023-06-24T02:30:43;14.33;;;8.80;;
8871;SDS011;4472;52.092;9.820;2023-06-24T02:33:31;21.03;;;8.00;;
8871;SDS011;4472;52.092;9.820;2023-06-24T02:36:19;21.43;;;8.10;;
8871;SDS011;4472;52.092;9.820;2023-06-24T02:39:06;23.57;;;8.00;;
8871;SDS011;4472;52.092;9.820;2023-06-24T02:41:55;22.07;;;8.20;;
8871;SDS011;4472;52.092;9.820;2023-06-24T02:44:42;16.33;;;8.10;;
8871;SDS011;4472;52.092;9.820;2023-06-24T02:47:29;18.00;;;7.93;;
8871;SDS011;4472;52.092;9.820;2023-06-24T02:50:17;15.50;;;8.23;;
8871;SDS011;4472;52.092;9.820;2023-06-24T02:53:05;26.43;;;7.57;;
8871;SDS011;4472;52.092;9.820;2023-06-24T02:55:52;16.57;;;7.60;;
8871;SDS011;4472;52.092;9.820;2023-06-24T02:58:42;16.50;;;8.07;;
8871;SDS011;4472;52.092;9.820;2023-06-24T03:01:30;24.93;;;9.07;;
8871;SDS011;4472;52.092;9.820;2023-06-24T03:04:24;27.73;;;9.00;;
8871;SDS011;4472;52.092;9.820;2023-06-24T03:07:11;20.10;;;7.80;;
8871;SDS011;4472;52.092;9.820;2023-06-24T03:09:59;21.13;;;7.10;;
8871;SDS011;4472;52.092;9.820;2023-06-24T03:12:47;18.97;;;7.77;;
8871;SDS011;4472;52.092;9.820;2023-06-24T03:15:35;14.00;;;7.20;;
8871;SDS011;4472;52.092;9.820;2023-06-24T03:18:22;18.10;;;7.63;;
8871;SDS011;4472;52.092;9.820;2023-06-24T03:21:10;20.00;;;6.60;;
8871;SDS011;4472;52.092;9.820;2023-06-24T03:23:57;18.47;;;8.43;;
8871;SDS011;4472;52.092;9.820;2023-06-24T03:26:45;8.70;;;7.10;;
8871;SDS011;4472;52.092;9.820;2023-06-24T03:29:32;14.30;;;7.37;;
8871;SDS011;4472;52.092;9.820;2023-06-24T03:32:20;21.13;;;7.53;;
8871;SDS011;4472;52.092;9.820;2023-06-24T03:35:08;17.03;;;7.23;;
8871;SDS011;4472;52.092;9.820;2023-06-24T03:37:55;16.83;;;8.57;;
8871;SDS011;4472;52.092;9.820;2023-06-24T03:40:42;16.67;;;7.73;;
8871;SDS011;4472;52.092;9.820;2023-06-24T03:43:29;16.23;;;7.70;;
8871;SDS011;4472;52.092;9.820;2023-06-24T03:46:17;15.43;;;7.90;;
8871;SDS011;4472;52.092;9.820;2023-06-24T03:49:05;19.80;;;7.87;;
8871;SDS011;4472;52.092;9.820;2023-06-24T03:51:52;20.03;;;8.37;;
8871;SDS011;4472;52.092;9.820;2023-06-24T03:54:40;18.27;;;7.87;;
8871;SDS011;4472;52.092;9.820;2023-06-24T03:57:27;18.73;;;7.57;;
8871;SDS011;4472;52.092;9.820;2023-06-24T04:00:14;17.43;;;7.63;;
8871;SDS011;4472;52.092;9.820;2023-06-24T04:03:02;13.13;;;6.53;;
8871;SDS011;4472;52.092;9.820;2023-06-24T04:05:50;14.13;;;7.23;;
8871;SDS011;4472;52.092;9.820;2023-06-24T04:08:38;17.97;;;7.67;;
8871;SDS011;4472;52.092;9.820;2023-06-24T04:11:25;20.07;;;7.53;;
8871;SDS011;4472;52.092;9.820;2023-06-24T04:14:13;26.47;;;8.03;;
8871;SDS011;4472;52.092;9.820;2023-06-24T04:17:00;15.97;;;7.80;;
8871;SDS011;4472;52.092;9.820;2023-06-24T04:19:48;17.87;;;7.30;;
8871;SDS011;4472;52.092;9.820;2023-06-24T04:22:37;14.70;;;7.67;;
8871;SDS011;4472;52.092;9.820;2023-06-24T04:25:24;15.73;;;8.30;;
8871;SDS011;4472;52.092;9.820;2023-06-24T04:28:11;17.43;;;8.73;;
8871;SDS011;4472;52.092;9.820;2023-06-24T04:30:58;13.80;;;8.57;;
8871;SDS011;4472;52.092;9.820;2023-06-24T04:33:46;19.57;;;9.00;;
8871;SDS011;4472;52.092;9.820;2023-06-24T04:36:33;17.93;;;8.90;;
8871;SDS011;4472;52.092;9.820;2023-06-24T04:39:22;16.57;;;8.50;;
8871;SDS011;4472;52.092;9.820;2023-06-24T04:42:09;20.37;;;9.07;;
8871;SDS011;4472;52.092;9.820;2023-06-24T04:44:56;12.43;;;8.53;;
8871;SDS011;4472;52.092;9.820;2023-06-24T04:47:43;16.13;;;8.70;;
8871;SDS011;4472;52.092;9.820;2023-06-24T04:50:30;12.17;;;8.33;;
8871;SDS011;4472;52.092;9.820;2023-06-24T04:53:18;14.63;;;8.00;;
8871;SDS011;4472;52.092;9.820;2023-06-24T04:56:06;12.17;;;8.03;;
8871;SDS011;4472;52.092;9.820;2023-06-24T04:58:53;12.40;;;8.60;;
8871;SDS011;4472;52.092;9.820;2023-06-24T05:01:40;16.87;;;9.17;;
8871;SDS011;4472;52.092;9.820;2023-06-24T05:04:27;15.73;;;8.30;;
8871;SDS011;4472;52.092;9.820;2023-06-24T05:07:15;12.40;;;8.33;;
8871;SDS011;4472;52.092;9.820;2023-06-24T05:10:02;11.97;;;8.50;;
8871;SDS011;4472;52.092;9.820;2023-06-24T05:12:51;12.93;;;8.27;;
8871;SDS011;4472;52.092;9.820;2023-06-24T05:15:38;16.27;;;8.07;;
8871;SDS011;4472;52.092;9.820;2023-06-24T05:18:25;14.13;;;8.60;;
8871;SDS011;4472;52.092;9.820;2023-06-24T05:21:12;14.73;;;8.20;;
8871;SDS011;4472;52.092;9.820;2023-06-24T05:23:59;13.43;;;8.30;;
8871;SDS011;4472;52.092;9.820;2023-06-24T05:26:50;18.30;;;8.90;;
8871;SDS011;4472;52.092;9.820;2023-06-24T05:29:39;15.50;;;8.07;;
8871;SDS011;4472;52.092;9.820;2023-06-24T05:32:26;19.13;;;8.40;;
8871;SDS011;4472;52.092;9.820;2023-06-24T05:35:13;12.07;;;8.60;;
8871;SDS011;4472;52.092;9.820;2023-06-24T05:38:00;14.90;;;10.10;;
8871;SDS011;4472;52.092;9.820;2023-06-24T05:40:47;14.27;;;10.07;;
8871;SDS011;4472;52.092;9.820;2023-06-24T05:43:35;14.50;;;10.17;;
8871;SDS011;4472;52.092;9.820;2023-06-24T05:46:23;15.57;;;9.90;;
8871;SDS011;4472;52.092;9.820;2023-06-24T05:49:10;12.13;;;8.27;;
8871;SDS011;4472;52.092;9.820;2023-06-24T05:51:58;13.90;;;8.70;;
8871;SDS011;4472;52.092;9.820;2023-06-24T05:54:45;11.33;;;8.63;;
8871;SDS011;4472;52.092;9.820;2023-06-24T05:57:32;12.70;;;8.33;;
8871;SDS011;4472;52.092;9.820;2023-06-24T06:00:19;10.03;;;7.80;;
8871;SDS011;4472;52.092;9.820;2023-06-24T06:03:08;9.40;;;7.67;;
8871;SDS011;4472;52.092;9.820;2023-06-24T06:05:56;9.83;;;8.03;;
8871;SDS011;4472;52.092;9.820;2023-06-24T06:08:43;11.27;;;7.20;;
8871;SDS011;4472;52.092;9.820;2023-06-24T06:11:30;8.37;;;7.30;;
8871;SDS011;4472;52.092;9.820;2023-06-24T06:14:17;9.40;;;6.37;;
8871;SDS011;4472;52.092;9.820;2023-06-24T06:17:05;8.33;;;6.50;;
8871;SDS011;4472;52.092;9.820;2023-06-24T06:19:53;10.47;;;6.23;;
8871;SDS011;4472;52.092;9.820;2023-06-24T06:22:40;8.63;;;7.50;;
8871;SDS011;4472;52.092;9.820;2023-06-24T06:25:27;9.23;;;6.33;;
8871;SDS011;4472;52.092;9.820;2023-06-24T06:28:15;12.70;;;6.27;;
8871;SDS011;4472;52.092;9.820;2023-06-24T06:31:02;10.70;;;6.30;;
8871;SDS011;4472;52.092;9.820;2023-06-24T06:33:49;12.20;;;7.03;;
8871;SDS011;4472;52.092;9.820;2023-06-24T06:36:38;8.97;;;6.77;;
8871;SDS011;4472;52.092;9.820;2023-06-24T06:39:25;8.53;;;6.13;;
8871;SDS011;4472;52.092;9.820;2023-06-24T06:42:12;8.67;;;6.97;;
8871;SDS011;4472;52.092;9.820;2023-06-24T06:45:00;8.17;;;6.33;;
8871;SDS011;4472;52.092;9.820;2023-06-24T06:47:48;6.53;;;5.57;;
8871;SDS011;4472;52.092;9.820;2023-06-24T06:50:36;7.60;;;6.70;;
8871;SDS011;4472;52.092;9.820;2023-06-24T06:53:24;8.77;;;5.83;;
8871;SDS011;4472;52.092;9.820;2023-06-24T06:56:16;7.37;;;6.13;;
8871;SDS011;4472;52.092;9.820;2023-06-24T06:59:03;8.37;;;6.03;;
8871;SDS011;4472;52.092;9.820;2023-06-24T07:01:50;10.13;;;6.53;;
8871;SDS011;4472;52.092;9.820;2023-06-24T07:04:38;10.77;;;6.27;;
8871;SDS011;4472;52.092;9.820;2023-06-24T07:07:25;6.97;;;5.93;;
8871;SDS011;4472;52.092;9.820;2023-06-24T07:10:13;5.93;;;5.10;;
8871;SDS011;4472;52.092;9.820;2023-06-24T07:13:01;5.87;;;4.90;;
8871;SDS011;4472;52.092;9.820;2023-06-24T07:15:48;7.93;;;6.40;;
8871;SDS011;4472;52.092;9.820;2023-06-24T07:18:35;5.23;;;4.73;;
8871;SDS011;4472;52.092;9.820;2023-06-24T07:21:22;6.20;;;4.83;;
8871;SDS011;4472;52.092;9.820;2023-06-24T07:24:10;8.10;;;4.33;;
8871;SDS011;4472;52.092;9.820;2023-06-24T07:26:58;6.57;;;4.83;;
8871;SDS011;4472;52.092;9.820;2023-06-24T07:29:45;4.67;;;4.10;;
8871;SDS011;4472;52.092;9.820;2023-06-24T07:32:32;7.10;;;4.93;;
8871;SDS011;4472;52.092;9.820;2023-06-24T07:35:20;6.87;;;4.03;;
8871;SDS011;4472;52.092;9.820;2023-06-24T07:38:07;6.63;;;4.70;;
8871;SDS011;4472;52.092;9.820;2023-06-24T07:40:54;7.37;;;5.03;;
8871;SDS011;4472;52.092;9.820;2023-06-24T07:43:42;5.83;;;4.33;;
8871;SDS011;4472;52.092;9.820;2023-06-24T07:46:29;4.70;;;4.30;;
8871;SDS011;4472;52.092;9.820;2023-06-24T07:49:17;5.13;;;4.63;;
8871;SDS011;4472;52.092;9.820;2023-06-24T07:52:04;4.90;;;4.40;;
8871;SDS011;4472;52.092;9.820;2023-06-24T07:54:51;4.20;;;3.80;;
8871;SDS011;4472;52.092;9.820;2023-06-24T07:57:39;4.40;;;4.00;;
8871;SDS011;4472;52.092;9.820;2023-06-24T08:00:28;5.47;;;4.20;;
8871;SDS011;4472;52.092;9.820;2023-06-24T08:03:15;6.00;;;4.37;;
8871;SDS011;4472;52.092;9.820;2023-06-24T08:06:02;4.87;;;3.80;;
8871;SDS011;4472;52.092;9.820;2023-06-24T08:08:49;4.93;;;4.13;;
8871;SDS011;4472;52.092;9.820;2023-06-24T08:11:37;5.13;;;3.97;;
8871;SDS011;4472;52.092;9.820;2023-06-24T08:14:24;6.60;;;4.53;;
8871;SDS011;4472;52.092;9.820;2023-06-24T08:17:12;4.73;;;4.00;;
8871;SDS011;4472;52.092;9.820;2023-06-24T08:20:00;7.00;;;4.50;;
8871;SDS011;4472;52.092;9.820;2023-06-24T08:22:49;6.53;;;4.17;;
8871;SDS011;4472;52.092;9.820;2023-06-24T08:25:36;6.00;;;4.40;;
8871;SDS011;4472;52.092;9.820;2023-06-24T08:28:23;7.43;;;5.10;;
8871;SDS011;4472;52.092;9.820;2023-06-24T08:31:11;5.10;;;4.60;;
8871;SDS011;4472;52.092;9.820;2023-06-24T08:34:00;6.40;;;4.33;;
8871;SDS011;4472;52.092;9.820;2023-06-24T08:36:47;5.00;;;4.50;;
8871;SDS011;4472;52.092;9.820;2023-06-24T08:39:34;4.67;;;4.00;;
8871;SDS011;4472;52.092;9.820;2023-06-24T08:42:24;5.20;;;3.83;;
8871;SDS011;4472;52.092;9.820;2023-06-24T08:45:11;4.83;;;4.33;;
8871;SDS011;4472;52.092;9.820;2023-06-24T08:47:58;4.60;;;4.20;;
8871;SDS011;4472;52.092;9.820;2023-06-24T08:50:50;6.63;;;4.03;;
8871;SDS011;4472;52.092;9.820;2023-06-24T08:53:38;7.40;;;4.40;;
8871;SDS011;4472;52.092;9.820;2023-06-24T08:56:32;5.03;;;4.37;;
8871;SDS011;4472;52.092;9.820;2023-06-24T08:59:22;5.50;;;4.70;;
8871;SDS011;4472;52.092;9.820;2023-06-24T09:02:09;6.67;;;4.50;;
8871;SDS011;4472;52.092;9.820;2023-06-24T09:04:59;6.57;;;4.60;;
8871;SDS011;4472;52.092;9.820;2023-06-24T09:07:47;8.57;;;4.90;;
8871;SDS011;4472;52.092;9.820;2023-06-24T09:10:35;5.53;;;4.63;;
8871;SDS011;4472;52.092;9.820;2023-06-24T09:13:27;6.80;;;5.13;;
8871;SDS011;4472;52.092;9.820;2023-06-24T09:16:21;5.80;;;5.13;;
8871;SDS011;4472;52.092;9.820;2023-06-24T09:19:08;5.33;;;4.80;;
8871;SDS011;4472;52.092;9.820;2023-06-24T09:21:55;7.00;;;4.63;;
8871;SDS011;4472;52.092;9.820;2023-06-24T09:24:49;5.27;;;4.40;;
8871;SDS011;4472;52.092;9.820;2023-06-24T09:27:36;5.07;;;4.63;;
8871;SDS011;4472;52.092;9.820;2023-06-24T09:30:23;5.00;;;4.40;;
8871;SDS011;4472;52.092;9.820;2023-06-24T09:33:11;6.03;;;5.13;;
8871;SDS011;4472;52.092;9.820;2023-06-24T09:35:58;5.90;;;4.40;;
8871;SDS011;4472;52.092;9.820;2023-06-24T09:38:47;5.87;;;4.40;;
8871;SDS011;4472;52.092;9.820;2023-06-24T09:41:36;6.60;;;4.50;;
8871;SDS011;4472;52.092;9.820;2023-06-24T09:44:27;5.53;;;4.50;;
8871;SDS011;4472;52.092;9.820;2023-06-24T09:47:15;6.07;;;4.27;;
8871;SDS011;4472;52.092;9.820;2023-06-24T09:50:02;4.43;;;4.03;;
8871;SDS011;4472;52.092;9.820;2023-06-24T09:52:51;4.37;;;3.77;;
8871;SDS011;4472;52.092;9.820;2023-06-24T09:55:43;4.60;;;4.20;;
8871;SDS011;4472;52.092;9.820;2023-06-24T09:58:35;5.50;;;4.03;;
8871;SDS011;4472;52.092;9.820;2023-06-24T10:01:23;7.50;;;4.67;;
8871;SDS011;4472;52.092;9.820;2023-06-24T10:04:15;5.53;;;4.33;;
8871;SDS011;4472;52.092;9.820;2023-06-24T10:07:03;6.77;;;4.43;;
8871;SDS011;4472;52.092;9.820;2023-06-24T10:09:50;4.80;;;4.30;;
8871;SDS011;4472;52.092;9.820;2023-06-24T10:12:37;7.30;;;4.30;;
8871;SDS011;4472;52.092;9.820;2023-06-24T10:15:26;4.40;;;4.00;;
8871;SDS011;4472;52.092;9.820;2023-06-24T10:18:32;5.47;;;4.20;;
8871;SDS011;4472;52.092;9.820;2023-06-24T10:21:20;4.80;;;4.30;;
8871;SDS011;4472;52.092;9.820;2023-06-24T10:24:07;5.13;;;4.33;;
8871;SDS011;4472;52.092;9.820;2023-06-24T10:27:00;6.57;;;4.53;;
8871;SDS011;4472;52.092;9.820;2023-06-24T10:29:49;4.13;;;3.73;;
8871;SDS011;4472;52.092;9.820;2023-06-24T10:32:41;4.50;;;4.10;;
8871;SDS011;4472;52.092;9.820;2023-06-24T10:35:29;4.63;;;3.90;;
8871;SDS011;4472;52.092;9.820;2023-06-24T10:38:17;6.20;;;4.30;;
8871;SDS011;4472;52.092;9.820;2023-06-24T10:41:10;4.90;;;4.17;;
8871;SDS011;4472;52.092;9.820;2023-06-24T10:44:14;4.97;;;3.70;;
8871;SDS011;4472;52.092;9.820;2023-06-24T10:47:02;4.90;;;4.20;;
8871;SDS011;4472;52.092;9.820;2023-06-24T10:49:50;4.40;;;4.00;;
8871;SDS011;4472;52.092;9.820;2023-06-24T10:52:38;4.77;;;3.73;;
8871;SDS011;4472;52.092;9.820;2023-06-24T10:55:26;4.87;;;4.13;;
8871;SDS011;4472;52.092;9.820;2023-06-24T10:58:13;5.43;;;3.87;;
8871;SDS011;4472;52.092;9.820;2023-06-24T11:01:08;5.47;;;4.30;;
8871;SDS011;4472;52.092;9.820;2023-06-24T11:03:55;5.13;;;4.07;;
8871;SDS011;4472;52.092;9.820;2023-06-24T11:06:44;5.63;;;4.30;;
8871;SDS011;4472;52.092;9.820;2023-06-24T11:09:48;4.37;;;3.70;;
8871;SDS011;4472;52.092;9.820;2023-06-24T11:12:36;4.90;;;3.57;;
8871;SDS011;4472;52.092;9.820;2023-06-24T11:15:24;4.57;;;3.83;;
8871;SDS011;4472;52.092;9.820;2023-06-24T11:18:11;4.40;;;4.00;;
8871;SDS011;4472;52.092;9.820;2023-06-24T11:20:58;4.40;;;4.00;;
8871;SDS011;4472;52.092;9.820;2023-06-24T11:23:47;7.30;;;3.90;;
8871;SDS011;4472;52.092;9.820;2023-06-24T11:26:34;6.30;;;4.07;;
8871;SDS011;4472;52.092;9.820;2023-06-24T11:29:23;4.97;;;3.90;;
8871;SDS011;4472;52.092;9.820;2023-06-24T11:32:10;4.20;;;3.77;;
8871;SDS011;4472;52.092;9.820;2023-06-24T11:34:57;7.47;;;4.00;;
8871;SDS011;4472;52.092;9.820;2023-06-24T11:37:45;4.70;;;4.30;;
8871;SDS011;4472;52.092;9.820;2023-06-24T11:40:36;4.47;;;4.07;;
8871;SDS011;4472;52.092;9.820;2023-06-24T11:43:25;4.40;;;4.00;;
8871;SDS011;4472;52.092;9.820;2023-06-24T11:46:20;4.70;;;4.00;;
8871;SDS011;4472;52.092;9.820;2023-06-24T11:49:08;4.73;;;4.17;;
8871;SDS011;4472;52.092;9.820;2023-06-24T11:51:55;4.50;;;4.10;;
8871;SDS011;4472;52.092;9.820;2023-06-24T11:54:42;4.90;;;4.10;;
8871;SDS011;4472;52.092;9.820;2023-06-24T12:00:38;4.33;;;4.03;;
8871;SDS011;4472;52.092;9.820;2023-06-24T12:03:28;5.77;;;4.43;;
8871;SDS011;4472;52.092;9.820;2023-06-24T12:06:19;4.50;;;4.10;;
8871;SDS011;4472;52.092;9.820;2023-06-24T12:09:06;5.40;;;4.30;;
8871;SDS011;4472;52.092;9.820;2023-06-24T12:11:53;5.07;;;4.50;;
8871;SDS011;4472;52.092;9.820;2023-06-24T12:14:48;7.50;;;4.80;;
8871;SDS011;4472;52.092;9.820;2023-06-24T12:17:35;5.10;;;4.50;;
8871;SDS011;4472;52.092;9.820;2023-06-24T12:20:23;6.00;;;4.43;;
8871;SDS011;4472;52.092;9.820;2023-06-24T12:23:11;4.20;;;3.90;;
8871;SDS011;4472;52.092;9.820;2023-06-24T12:25:58;5.37;;;4.47;;
8871;SDS011;4472;52.092;9.820;2023-06-24T12:28:45;4.70;;;4.20;;
8871;SDS011;4472;52.092;9.820;2023-06-24T12:31:33;6.67;;;4.00;;
8871;SDS011;4472;52.092;9.820;2023-06-24T12:34:21;5.97;;;4.33;;
8871;SDS011;4472;52.092;9.820;2023-06-24T12:37:08;5.87;;;4.70;;
8871;SDS011;4472;52.092;9.820;2023-06-24T12:39:55;6.17;;;5.20;;
8871;SDS011;4472;52.092;9.820;2023-06-24T12:42:42;5.80;;;4.70;;
8871;SDS011;4472;52.092;9.820;2023-06-24T12:45:29;7.50;;;4.47;;
8871;SDS011;4472;52.092;9.820;2023-06-24T12:48:17;5.13;;;4.63;;
8871;SDS011;4472;52.092;9.820;2023-06-24T12:51:05;5.63;;;4.50;;
8871;SDS011;4472;52.092;9.820;2023-06-24T12:53:52;5.03;;;4.53;;
8871;SDS011;4472;52.092;9.820;2023-06-24T12:56:39;4.87;;;4.47;;
8871;SDS011;4472;52.092;9.820;2023-06-24T12:59:26;4.90;;;4.50;;
8871;SDS011;4472;52.092;9.820;2023-06-24T13:02:13;5.20;;;4.80;;
8871;SDS011;4472;52.092;9.820;2023-06-24T13:05:02;4.93;;;4.50;;
8871;SDS011;4472;52.092;9.820;2023-06-24T13:07:49;5.80;;;5.03;;
8871;SDS011;4472;52.092;9.820;2023-06-24T13:10:36;5.00;;;4.60;;
8871;SDS011;4472;52.092;9.820;2023-06-24T13:13:24;4.90;;;4.40;;
8871;SDS011;4472;52.092;9.820;2023-06-24T13:16:11;4.83;;;4.37;;
8871;SDS011;4472;52.092;9.820;2023-06-24T13:18:58;5.23;;;4.70;;
8871;SDS011;4472;52.092;9.820;2023-06-24T13:21:47;5.53;;;4.63;;
8871;SDS011;4472;52.092;9.820;2023-06-24T13:24:35;6.83;;;4.20;;
8871;SDS011;4472;52.092;9.820;2023-06-24T13:27:22;4.73;;;4.33;;
8871;SDS011;4472;52.092;9.820;2023-06-24T13:30:11;5.20;;;4.70;;
8871;SDS011;4472;52.092;9.820;2023-06-24T13:33:00;4.83;;;4.43;;
8871;SDS011;4472;52.092;9.820;2023-06-24T13:35:47;5.13;;;4.63;;
8871;SDS011;4472;52.092;9.820;2023-06-24T13:38:36;5.53;;;5.03;;
8871;SDS011;4472;52.092;9.820;2023-06-24T13:41:23;5.97;;;4.30;;
8871;SDS011;4472;52.092;9.820;2023-06-24T13:44:14;5.30;;;4.80;;
8871;SDS011;4472;52.092;9.820;2023-06-24T13:47:01;5.13;;;4.67;;
8871;SDS011;4472;52.092;9.820;2023-06-24T13:49:49;5.30;;;4.80;;
8871;SDS011;4472;52.092;9.820;2023-06-24T13:52:36;5.30;;;4.70;;
8871;SDS011;4472;52.092;9.820;2023-06-24T13:55:25;7.87;;;5.17;;
8871;SDS011;4472;52.092;9.820;2023-06-24T13:58:12;5.43;;;4.43;;
8871;SDS011;4472;52.092;9.820;2023-06-24T14:01:00;5.13;;;4.63;;
8871;SDS011;4472;52.092;9.820;2023-06-24T14:03:47;4.93;;;4.53;;
8871;SDS011;4472;52.092;9.820;2023-06-24T14:06:35;4.97;;;4.47;;
8871;SDS011;4472;52.092;9.820;2023-06-24T14:09:22;4.73;;;4.33;;
8871;SDS011;4472;52.092;9.820;2023-06-24T14:12:10;5.30;;;4.80;;
8871;SDS011;4472;52.092;9.820;2023-06-24T14:14:57;5.50;;;5.00;;
8871;SDS011;4472;52.092;9.820;2023-06-24T14:17:45;5.40;;;4.80;;
8871;SDS011;4472;52.092;9.820;2023-06-24T14:20:32;5.00;;;4.60;;
8871;SDS011;4472;52.092;9.820;2023-06-24T14:23:19;5.67;;;4.80;;
8871;SDS011;4472;52.092;9.820;2023-06-24T14:26:06;6.37;;;5.20;;
8871;SDS011;4472;52.092;9.820;2023-06-24T14:28:55;5.50;;;5.00;;
8871;SDS011;4472;52.092;9.820;2023-06-24T14:31:42;7.23;;;4.97;;
8871;SDS011;4472;52.092;9.820;2023-06-24T14:34:29;5.43;;;4.70;;
8871;SDS011;4472;52.092;9.820;2023-06-24T14:37:17;4.80;;;4.40;;
8871;SDS011;4472;52.092;9.820;2023-06-24T14:40:05;5.10;;;4.70;;
8871;SDS011;4472;52.092;9.820;2023-06-24T14:42:53;5.30;;;4.80;;
8871;SDS011;4472;52.092;9.820;2023-06-24T14:45:41;5.60;;;4.60;;
8871;SDS011;4472;52.092;9.820;2023-06-24T14:48:29;5.37;;;4.87;;
8871;SDS011;4472;52.092;9.820;2023-06-24T14:51:16;5.53;;;4.57;;
8871;SDS011;4472;52.092;9.820;2023-06-24T14:54:03;5.50;;;4.40;;
8871;SDS011;4472;52.092;9.820;2023-06-24T14:56:50;5.63;;;4.70;;
8871;SDS011;4472;52.092;9.820;2023-06-24T14:59:37;6.03;;;5.03;;
8871;SDS011;4472;52.092;9.820;2023-06-24T15:02:47;5.43;;;4.93;;
8871;SDS011;4472;52.092;9.820;2023-06-24T15:05:34;5.43;;;4.93;;
8871;SDS011;4472;52.092;9.820;2023-06-24T15:08:21;9.17;;;5.27;;
8871;SDS011;4472;52.092;9.820;2023-06-24T15:11:10;5.93;;;4.80;;
8871;SDS011;4472;52.092;9.820;2023-06-24T15:13:58;5.27;;;4.73;;
8871;SDS011;4472;52.092;9.820;2023-06-24T15:16:45;5.33;;;4.83;;
8871;SDS011;4472;52.092;9.820;2023-06-24T15:19:33;6.70;;;5.00;;
8871;SDS011;4472;52.092;9.820;2023-06-24T15:22:21;5.30;;;4.80;;
8871;SDS011;4472;52.092;9.820;2023-06-24T15:25:08;5.03;;;4.63;;
8871;SDS011;4472;52.092;9.820;2023-06-24T15:27:56;5.90;;;4.60;;
8871;SDS011;4472;52.092;9.820;2023-06-24T15:30:44;5.10;;;4.60;;
8871;SDS011;4472;52.092;9.820;2023-06-24T15:33:31;5.83;;;4.80;;
8871;SDS011;4472;52.092;9.820;2023-06-24T15:36:20;5.40;;;4.80;;
8871;SDS011;4472;52.092;9.820;2023-06-24T15:39:11;5.20;;;4.70;;
8871;SDS011;4472;52.092;9.820;2023-06-24T15:41:59;7.07;;;4.83;;
8871;SDS011;4472;52.092;9.820;2023-06-24T15:44:46;5.57;;;5.07;;
8871;SDS011;4472;52.092;9.820;2023-06-24T15:47:33;7.20;;;4.80;;
8871;SDS011;4472;52.092;9.820;2023-06-24T15:50:20;4.80;;;4.40;;
8871;SDS011;4472;52.092;9.820;2023-06-24T15:53:09;7.33;;;5.07;;
8871;SDS011;4472;52.092;9.820;2023-06-24T15:55:56;5.00;;;4.50;;
8871;SDS011;4472;52.092;9.820;2023-06-24T15:58:43;5.13;;;4.70;;
8871;SDS011;4472;52.092;9.820;2023-06-24T16:01:30;7.13;;;4.80;;
8871;SDS011;4472;52.092;9.820;2023-06-24T16:04:17;5.67;;;4.47;;
8871;SDS011;4472;52.092;9.820;2023-06-24T16:07:05;5.50;;;4.57;;
8871;SDS011;4472;52.092;9.820;2023-06-24T16:09:53;5.17;;;4.63;;
8871;SDS011;4472;52.092;9.820;2023-06-24T16:12:40;5.20;;;4.80;;
8871;SDS011;4472;52.092;9.820;2023-06-24T16:15:27;5.70;;;5.20;;
8871;SDS011;4472;52.092;9.820;2023-06-24T16:18:15;5.63;;;5.03;;
8871;SDS011;4472;52.092;9.820;2023-06-24T16:21:02;6.03;;;5.43;;
8871;SDS011;4472;52.092;9.820;2023-06-24T16:23:49;5.67;;;4.97;;
8871;SDS011;4472;52.092;9.820;2023-06-24T16:26:37;5.23;;;4.70;;
8871;SDS011;4472;52.092;9.820;2023-06-24T16:29:25;7.83;;;4.87;;
8871;SDS011;4472;52.092;9.820;2023-06-24T16:32:12;5.03;;;4.53;;
8871;SDS011;4472;52.092;9.820;2023-06-24T16:34:59;7.73;;;4.60;;
8871;SDS011;4472;52.092;9.820;2023-06-24T16:37:47;7.37;;;5.13;;
8871;SDS011;4472;52.092;9.820;2023-06-24T16:40:34;5.43;;;4.73;;
8871;SDS011;4472;52.092;9.820;2023-06-24T16:43:22;5.07;;;4.47;;
8871;SDS011;4472;52.092;9.820;2023-06-24T16:46:09;5.97;;;5.37;;
8871;SDS011;4472;52.092;9.820;2023-06-24T16:48:57;5.90;;;4.87;;
8871;SDS011;4472;52.092;9.820;2023-06-24T16:51:48;5.10;;;4.67;;
8871;SDS011;4472;52.092;9.820;2023-06-24T16:54:35;5.63;;;4.83;;
8871;SDS011;4472;52.092;9.820;2023-06-24T16:57:23;5.17;;;4.67;;
8871;SDS011;4472;52.092;9.820;2023-06-24T17:00:12;5.57;;;5.00;;
8871;SDS011;4472;52.092;9.820;2023-06-24T17:03:00;4.93;;;4.53;;
8871;SDS011;4472;52.092;9.820;2023-06-24T17:05:47;5.17;;;4.77;;
8871;SDS011;4472;52.092;9.820;2023-06-24T17:08:34;6.07;;;4.80;;
8871;SDS011;4472;52.092;9.820;2023-06-24T17:11:21;5.47;;;4.97;;
8871;SDS011;4472;52.092;9.820;2023-06-24T17:14:08;6.50;;;5.10;;
8871;SDS011;4472;52.092;9.820;2023-06-24T17:16:57;5.67;;;5.13;;
8871;SDS011;4472;52.092;9.820;2023-06-24T17:19:44;6.87;;;5.23;;
8871;SDS011;4472;52.092;9.820;2023-06-24T17:22:31;5.47;;;4.83;;